Terminal Aerodrome Forecast
Issued by NWS

Home | Current Version | Previous Version | Text Only | Print | Product List | Glossary On
Versions: 1 2 3 4 5 6 7 8 9 10 11 12 13 14 15
000
FTUS44 KTSA 011700
TAFBVO
TAF
KBVO 011720Z 0118/0218 13011G18KT P6SM BKN015 OVC035
     FM020000 18012KT P6SM VCTS SCT035CB BKN250
      TEMPO 0201/0205 VRB20G40KT 5SM -TSRA BKN040CB
     FM020500 36007KT P6SM BKN060=

USA.gov is the U.S. government's official web portal to all federal, state and local government web resources and services.